sensor_id;sensor_type;location;lat;lon;timestamp;pressure;altitude;pressure_sealevel;temperature;humidity
15870;BME280;8034;51.442;-0.522;2022-08-11T00:00:35;102302.86;;;19.59;100.00
15870;BME280;8034;51.442;-0.522;2022-08-11T00:03:07;102299.38;;;19.48;100.00
15870;BME280;8034;51.442;-0.522;2022-08-11T00:05:45;102298.72;;;19.37;100.00
15870;BME280;8034;51.442;-0.522;2022-08-11T00:08:22;102294.41;;;19.42;100.00
15870;BME280;8034;51.442;-0.522;2022-08-11T00:10:55;102296.56;;;19.48;100.00
15870;BME280;8034;51.442;-0.522;2022-08-11T00:13:32;102298.73;;;19.53;100.00
15870;BME280;8034;51.442;-0.522;2022-08-11T00:16:11;102292.42;;;19.43;100.00
15870;BME280;8034;51.442;-0.522;2022-08-11T00:18:40;102296.61;;;19.29;100.00
15870;BME280;8034;51.442;-0.522;2022-08-11T00:21:11;102302.36;;;19.22;100.00
15870;BME280;8034;51.442;-0.522;2022-08-11T00:23:45;102306.59;;;19.22;100.00
15870;BME280;8034;51.442;-0.522;2022-08-11T00:26:15;102308.89;;;19.20;100.00
15870;BME280;8034;51.442;-0.522;2022-08-11T00:28:46;102307.07;;;19.26;100.00
15870;BME280;8034;51.442;-0.522;2022-08-11T00:31:23;102305.31;;;19.14;100.00
15870;BME280;8034;51.442;-0.522;2022-08-11T00:33:56;102308.70;;;18.97;100.00
15870;BME280;8034;51.442;-0.522;2022-08-11T00:36:29;102312.72;;;18.91;100.00
15870;BME280;8034;51.442;-0.522;2022-08-11T00:39:05;102312.65;;;18.96;100.00
15870;BME280;8034;51.442;-0.522;2022-08-11T00:41:40;102310.11;;;18.97;100.00
15870;BME280;8034;51.442;-0.522;2022-08-11T00:44:31;102308.75;;;18.95;100.00
15870;BME280;8034;51.442;-0.522;2022-08-11T00:47:14;102307.09;;;18.91;100.00
15870;BME280;8034;51.442;-0.522;2022-08-11T00:50:01;102304.03;;;18.90;100.00
15870;BME280;8034;51.442;-0.522;2022-08-11T00:59:39;102296.03;;;18.79;100.00
15870;BME280;8034;51.442;-0.522;2022-08-11T01:02:16;102292.58;;;18.84;100.00
15870;BME280;8034;51.442;-0.522;2022-08-11T01:08:34;102284.96;;;18.47;100.00
15870;BME280;8034;51.442;-0.522;2022-08-11T01:24:42;102281.22;;;18.12;100.00
15870;BME280;8034;51.442;-0.522;2022-08-11T01:27:50;102278.96;;;18.14;100.00
15870;BME280;8034;51.442;-0.522;2022-08-11T01:30:35;102267.55;;;18.05;100.00
15870;BME280;8034;51.442;-0.522;2022-08-11T01:46:47;102277.51;;;17.95;100.00
15870;BME280;8034;51.442;-0.522;2022-08-11T01:52:23;102274.13;;;17.72;100.00
15870;BME280;8034;51.442;-0.522;2022-08-11T01:54:55;102269.91;;;17.72;100.00
15870;BME280;8034;51.442;-0.522;2022-08-11T01:57:30;102276.93;;;17.72;100.00
15870;BME280;8034;51.442;-0.522;2022-08-11T02:00:07;102273.98;;;17.61;100.00
15870;BME280;8034;51.442;-0.522;2022-08-11T02:02:46;102273.53;;;17.46;100.00
15870;BME280;8034;51.442;-0.522;2022-08-11T02:05:40;102275.62;;;17.36;100.00
15870;BME280;8034;51.442;-0.522;2022-08-11T02:08:05;102280.73;;;17.28;100.00
15870;BME280;8034;51.442;-0.522;2022-08-11T02:10:38;102275.52;;;17.17;100.00
15870;BME280;8034;51.442;-0.522;2022-08-11T02:13:33;102278.96;;;17.09;100.00
15870;BME280;8034;51.442;-0.522;2022-08-11T02:16:15;102278.12;;;17.08;100.00
15870;BME280;8034;51.442;-0.522;2022-08-11T02:18:47;102273.58;;;17.15;100.00
15870;BME280;8034;51.442;-0.522;2022-08-11T02:21:43;102272.66;;;17.22;100.00
15870;BME280;8034;51.442;-0.522;2022-08-11T02:24:34;102278.84;;;17.21;100.00
15870;BME280;8034;51.442;-0.522;2022-08-11T02:27:08;102271.78;;;17.26;100.00
15870;BME280;8034;51.442;-0.522;2022-08-11T02:29:42;102273.22;;;17.24;100.00
15870;BME280;8034;51.442;-0.522;2022-08-11T02:32:17;102266.77;;;17.21;100.00
15870;BME280;8034;51.442;-0.522;2022-08-11T02:35:13;102268.77;;;17.18;100.00
15870;BME280;8034;51.442;-0.522;2022-08-11T02:37:49;102270.09;;;17.25;100.00
15870;BME280;8034;51.442;-0.522;2022-08-11T02:40:28;102271.86;;;17.16;100.00
15870;BME280;8034;51.442;-0.522;2022-08-11T02:43:10;102268.65;;;16.99;100.00
15870;BME280;8034;51.442;-0.522;2022-08-11T02:45:53;102264.96;;;17.04;100.00
15870;BME280;8034;51.442;-0.522;2022-08-11T02:48:42;102267.80;;;17.01;100.00
15870;BME280;8034;51.442;-0.522;2022-08-11T02:51:40;102269.52;;;16.97;100.00
15870;BME280;8034;51.442;-0.522;2022-08-11T02:54:14;102267.48;;;16.69;100.00
15870;BME280;8034;51.442;-0.522;2022-08-11T02:56:49;102264.96;;;16.70;100.00
15870;BME280;8034;51.442;-0.522;2022-08-11T02:59:36;102269.42;;;16.76;100.00
15870;BME280;8034;51.442;-0.522;2022-08-11T03:02:32;102265.70;;;16.83;100.00
15870;BME280;8034;51.442;-0.522;2022-08-11T03:05:11;102262.44;;;17.05;100.00
15870;BME280;8034;51.442;-0.522;2022-08-11T03:07:47;102257.82;;;17.16;100.00
15870;BME280;8034;51.442;-0.522;2022-08-11T03:10:21;102258.50;;;17.03;100.00
15870;BME280;8034;51.442;-0.522;2022-08-11T03:12:56;102263.87;;;17.02;100.00
15870;BME280;8034;51.442;-0.522;2022-08-11T03:15:47;102262.16;;;17.04;100.00
15870;BME280;8034;51.442;-0.522;2022-08-11T03:18:39;102258.74;;;17.09;100.00
15870;BME280;8034;51.442;-0.522;2022-08-11T03:21:15;102259.70;;;16.97;100.00
15870;BME280;8034;51.442;-0.522;2022-08-11T03:23:49;102258.50;;;17.06;100.00
15870;BME280;8034;51.442;-0.522;2022-08-11T03:26:27;102261.52;;;17.12;100.00
15870;BME280;8034;51.442;-0.522;2022-08-11T03:29:05;102263.35;;;16.95;100.00
15870;BME280;8034;51.442;-0.522;2022-08-11T03:34:37;102255.98;;;16.70;100.00
15870;BME280;8034;51.442;-0.522;2022-08-11T03:37:27;102260.72;;;16.75;100.00
15870;BME280;8034;51.442;-0.522;2022-08-11T03:43:54;102257.95;;;16.72;100.00
15870;BME280;8034;51.442;-0.522;2022-08-11T03:46:35;102258.57;;;16.62;100.00
15870;BME280;8034;51.442;-0.522;2022-08-11T03:52:17;102258.07;;;16.50;100.00
15870;BME280;8034;51.442;-0.522;2022-08-11T03:54:53;102258.09;;;16.47;100.00
15870;BME280;8034;51.442;-0.522;2022-08-11T04:01:02;102239.36;;;16.35;100.00
15870;BME280;8034;51.442;-0.522;2022-08-11T04:03:57;102245.22;;;16.41;100.00
15870;BME280;8034;51.442;-0.522;2022-08-11T04:17:49;102229.83;;;16.38;100.00
15870;BME280;8034;51.442;-0.522;2022-08-11T04:20:43;102234.37;;;16.27;100.00
15870;BME280;8034;51.442;-0.522;2022-08-11T04:30:11;102229.20;;;16.44;100.00
15870;BME280;8034;51.442;-0.522;2022-08-11T04:33:06;102224.97;;;16.49;100.00
15870;BME280;8034;51.442;-0.522;2022-08-11T04:35:41;102222.59;;;16.27;100.00
15870;BME280;8034;51.442;-0.522;2022-08-11T04:45:00;102224.81;;;16.33;100.00
15870;BME280;8034;51.442;-0.522;2022-08-11T04:51:17;102222.45;;;16.48;100.00
15870;BME280;8034;51.442;-0.522;2022-08-11T04:57:00;102220.20;;;16.50;100.00
15870;BME280;8034;51.442;-0.522;2022-08-11T05:00:04;102220.20;;;16.50;100.00
15870;BME280;8034;51.442;-0.522;2022-08-11T05:09:28;102221.05;;;16.50;100.00
15870;BME280;8034;51.442;-0.522;2022-08-11T05:12:25;102227.46;;;16.53;100.00
15870;BME280;8034;51.442;-0.522;2022-08-11T05:14:58;102225.99;;;16.68;100.00
15870;BME280;8034;51.442;-0.522;2022-08-11T05:17:53;102230.30;;;16.51;100.00
15870;BME280;8034;51.442;-0.522;2022-08-11T05:20:47;102227.19;;;16.60;100.00
15870;BME280;8034;51.442;-0.522;2022-08-11T05:23:39;102226.63;;;16.58;100.00
15870;BME280;8034;51.442;-0.522;2022-08-11T05:26:29;102225.78;;;16.57;100.00
15870;BME280;8034;51.442;-0.522;2022-08-11T05:29:40;102236.69;;;16.61;100.00
15870;BME280;8034;51.442;-0.522;2022-08-11T05:32:32;102242.61;;;16.55;100.00
15870;BME280;8034;51.442;-0.522;2022-08-11T05:35:27;102239.05;;;16.39;100.00
15870;BME280;8034;51.442;-0.522;2022-08-11T05:37:59;102245.98;;;16.52;100.00
15870;BME280;8034;51.442;-0.522;2022-08-11T05:40:49;102245.03;;;16.30;100.00
15870;BME280;8034;51.442;-0.522;2022-08-11T05:43:43;102244.94;;;16.40;100.00
15870;BME280;8034;51.442;-0.522;2022-08-11T05:46:38;102251.88;;;16.58;100.00
15870;BME280;8034;51.442;-0.522;2022-08-11T05:49:30;102257.70;;;16.66;100.00
15870;BME280;8034;51.442;-0.522;2022-08-11T05:52:22;102255.91;;;16.78;100.00
15870;BME280;8034;51.442;-0.522;2022-08-11T05:55:11;102250.48;;;16.92;100.00
15870;BME280;8034;51.442;-0.522;2022-08-11T05:58:02;102250.80;;;16.88;100.00
15870;BME280;8034;51.442;-0.522;2022-08-11T06:00:40;102249.08;;;16.92;100.00
15870;BME280;8034;51.442;-0.522;2022-08-11T06:03:21;102236.32;;;17.04;100.00
15870;BME280;8034;51.442;-0.522;2022-08-11T06:05:52;102239.39;;;17.37;100.00
15870;BME280;8034;51.442;-0.522;2022-08-11T06:08:29;102239.39;;;17.37;100.00
15870;BME280;8034;51.442;-0.522;2022-08-11T06:11:04;102241.17;;;17.51;100.00
15870;BME280;8034;51.442;-0.522;2022-08-11T06:13:35;102241.11;;;17.59;100.00
15870;BME280;8034;51.442;-0.522;2022-08-11T06:16:08;102244.55;;;17.51;100.00
15870;BME280;8034;51.442;-0.522;2022-08-11T06:18:45;102245.60;;;17.60;100.00
15870;BME280;8034;51.442;-0.522;2022-08-11T06:21:16;102251.13;;;17.67;100.00
15870;BME280;8034;51.442;-0.522;2022-08-11T06:23:48;102234.93;;;17.83;100.00
15870;BME280;8034;51.442;-0.522;2022-08-11T06:26:18;102245.34;;;17.80;100.00
15870;BME280;8034;51.442;-0.522;2022-08-11T06:28:49;102236.19;;;17.93;100.00
15870;BME280;8034;51.442;-0.522;2022-08-11T06:31:21;102236.45;;;17.97;100.00
15870;BME280;8034;51.442;-0.522;2022-08-11T06:33:58;102238.38;;;17.99;100.00
15870;BME280;8034;51.442;-0.522;2022-08-11T06:36:33;102233.47;;;18.09;100.00
15870;BME280;8034;51.442;-0.522;2022-08-11T06:39:08;102238.18;;;18.14;100.00
15870;BME280;8034;51.442;-0.522;2022-08-11T06:41:44;102228.29;;;18.16;100.00
15870;BME280;8034;51.442;-0.522;2022-08-11T06:44:26;102232.66;;;18.25;100.00
15870;BME280;8034;51.442;-0.522;2022-08-11T06:47:07;102235.56;;;18.39;100.00
15870;BME280;8034;51.442;-0.522;2022-08-11T06:49:41;102233.41;;;18.49;100.00
15870;BME280;8034;51.442;-0.522;2022-08-11T06:52:32;102231.20;;;18.68;100.00
15870;BME280;8034;51.442;-0.522;2022-08-11T06:55:10;102227.17;;;18.74;100.00
15870;BME280;8034;51.442;-0.522;2022-08-11T06:57:40;102232.20;;;18.74;100.00
15870;BME280;8034;51.442;-0.522;2022-08-11T07:00:31;102230.47;;;18.94;100.00
15870;BME280;8034;51.442;-0.522;2022-08-11T07:03:05;102223.45;;;18.92;100.00
15870;BME280;8034;51.442;-0.522;2022-08-11T07:05:43;102227.30;;;18.98;100.00
15870;BME280;8034;51.442;-0.522;2022-08-11T07:12:01;102222.84;;;19.11;100.00
15870;BME280;8034;51.442;-0.522;2022-08-11T07:18:07;102225.90;;;19.44;100.00
15870;BME280;8034;51.442;-0.522;2022-08-11T07:24:22;102216.45;;;19.65;100.00
15870;BME280;8034;51.442;-0.522;2022-08-11T07:30:26;102220.88;;;19.96;100.00
15870;BME280;8034;51.442;-0.522;2022-08-11T07:35:59;102229.45;;;20.16;100.00
15870;BME280;8034;51.442;-0.522;2022-08-11T07:38:32;102231.00;;;20.11;100.00
15870;BME280;8034;51.442;-0.522;2022-08-11T07:41:13;102232.25;;;20.43;100.00
15870;BME280;8034;51.442;-0.522;2022-08-11T07:43:45;102228.70;;;20.37;100.00
15870;BME280;8034;51.442;-0.522;2022-08-11T07:46:17;102228.70;;;20.62;100.00
15870;BME280;8034;51.442;-0.522;2022-08-11T07:49:08;102226.69;;;20.85;100.00
15870;BME280;8034;51.442;-0.522;2022-08-11T07:51:56;102225.27;;;21.07;100.00
15870;BME280;8034;51.442;-0.522;2022-08-11T07:54:45;102229.11;;;21.33;100.00
15870;BME280;8034;51.442;-0.522;2022-08-11T07:57:17;102229.30;;;21.37;100.00
15870;BME280;8034;51.442;-0.522;2022-08-11T08:00:08;102230.17;;;21.46;100.00
15870;BME280;8034;51.442;-0.522;2022-08-11T08:02:56;102229.45;;;21.71;100.00
15870;BME280;8034;51.442;-0.522;2022-08-11T08:05:46;102226.16;;;21.98;100.00
15870;BME280;8034;51.442;-0.522;2022-08-11T08:08:35;102228.61;;;22.19;100.00
15870;BME280;8034;51.442;-0.522;2022-08-11T08:11:25;102229.31;;;22.42;100.00
15870;BME280;8034;51.442;-0.522;2022-08-11T08:14:13;102228.48;;;22.50;100.00
15870;BME280;8034;51.442;-0.522;2022-08-11T08:17:02;102223.58;;;22.79;100.00
15870;BME280;8034;51.442;-0.522;2022-08-11T08:19:51;102219.42;;;22.76;100.00
15870;BME280;8034;51.442;-0.522;2022-08-11T08:22:22;102212.14;;;22.81;100.00
15870;BME280;8034;51.442;-0.522;2022-08-11T08:24:53;102224.61;;;23.14;100.00
15870;BME280;8034;51.442;-0.522;2022-08-11T08:27:24;102219.42;;;23.17;100.00
15870;BME280;8034;51.442;-0.522;2022-08-11T08:29:55;102223.59;;;23.42;100.00
15870;BME280;8034;51.442;-0.522;2022-08-11T08:32:44;102212.72;;;23.30;100.00
15870;BME280;8034;51.442;-0.522;2022-08-11T08:35:15;102212.58;;;23.41;100.00
15870;BME280;8034;51.442;-0.522;2022-08-11T08:37:45;102217.55;;;23.76;100.00
15870;BME280;8034;51.442;-0.522;2022-08-11T08:40:18;102212.95;;;23.92;100.00
15870;BME280;8034;51.442;-0.522;2022-08-11T08:42:51;102208.61;;;23.94;100.00
15870;BME280;8034;51.442;-0.522;2022-08-11T08:45:24;102207.52;;;23.93;100.00
15870;BME280;8034;51.442;-0.522;2022-08-11T08:51:00;102207.91;;;24.12;100.00
15870;BME280;8034;51.442;-0.522;2022-08-11T08:53:49;102212.41;;;23.84;100.00
15870;BME280;8034;51.442;-0.522;2022-08-11T08:56:24;102209.20;;;24.09;100.00
15870;BME280;8034;51.442;-0.522;2022-08-11T08:58:58;102203.66;;;24.12;100.00
15870;BME280;8034;51.442;-0.522;2022-08-11T09:01:32;102204.48;;;24.13;100.00
15870;BME280;8034;51.442;-0.522;2022-08-11T09:04:04;102204.48;;;24.27;100.00
15870;BME280;8034;51.442;-0.522;2022-08-11T09:06:37;102197.68;;;24.34;100.00
15870;BME280;8034;51.442;-0.522;2022-08-11T09:09:09;102195.73;;;24.47;100.00
15870;BME280;8034;51.442;-0.522;2022-08-11T09:38:56;102184.05;;;25.14;100.00
15870;BME280;8034;51.442;-0.522;2022-08-11T09:41:45;102177.80;;;25.27;100.00
15870;BME280;8034;51.442;-0.522;2022-08-11T09:44:16;102176.23;;;25.11;100.00
15870;BME280;8034;51.442;-0.522;2022-08-11T09:47:05;102170.07;;;25.21;100.00
15870;BME280;8034;51.442;-0.522;2022-08-11T09:49:38;102169.50;;;25.46;100.00
15870;BME280;8034;51.442;-0.522;2022-08-11T09:52:11;102166.06;;;25.34;100.00
15870;BME280;8034;51.442;-0.522;2022-08-11T09:54:43;102158.73;;;25.52;100.00
15870;BME280;8034;51.442;-0.522;2022-08-11T09:57:15;102163.02;;;25.64;100.00
15870;BME280;8034;51.442;-0.522;2022-08-11T10:00:09;102156.39;;;25.84;100.00
15870;BME280;8034;51.442;-0.522;2022-08-11T10:02:42;102155.44;;;25.74;100.00
15870;BME280;8034;51.442;-0.522;2022-08-11T10:05:16;102153.08;;;25.58;100.00
15870;BME280;8034;51.442;-0.522;2022-08-11T10:08:06;102154.73;;;25.71;100.00
15870;BME280;8034;51.442;-0.522;2022-08-11T10:10:38;102151.72;;;26.10;100.00
15870;BME280;8034;51.442;-0.522;2022-08-11T10:13:12;102147.93;;;26.00;100.00
15870;BME280;8034;51.442;-0.522;2022-08-11T10:15:44;102149.00;;;25.89;100.00
15870;BME280;8034;51.442;-0.522;2022-08-11T10:18:18;102147.97;;;25.75;100.00
15870;BME280;8034;51.442;-0.522;2022-08-11T10:24:08;102139.14;;;26.05;100.00
15870;BME280;8034;51.442;-0.522;2022-08-11T10:26:57;102143.66;;;26.00;100.00
15870;BME280;8034;51.442;-0.522;2022-08-11T10:29:31;102141.13;;;26.10;100.00
15870;BME280;8034;51.442;-0.522;2022-08-11T10:32:22;102135.67;;;26.17;100.00
15870;BME280;8034;51.442;-0.522;2022-08-11T10:35:12;102136.50;;;26.12;100.00
15870;BME280;8034;51.442;-0.522;2022-08-11T10:37:44;102137.20;;;26.15;100.00
15870;BME280;8034;51.442;-0.522;2022-08-11T10:40:17;102133.34;;;26.01;100.00
15870;BME280;8034;51.442;-0.522;2022-08-11T10:42:55;102123.14;;;26.40;100.00
15870;BME280;8034;51.442;-0.522;2022-08-11T10:45:42;102132.13;;;26.20;100.00
15870;BME280;8034;51.442;-0.522;2022-08-11T10:51:43;102128.37;;;25.86;100.00
15870;BME280;8034;51.442;-0.522;2022-08-11T10:57:30;102116.88;;;25.89;100.00
15870;BME280;8034;51.442;-0.522;2022-08-11T11:00:20;102123.55;;;25.56;100.00
15870;BME280;8034;51.442;-0.522;2022-08-11T11:02:52;102127.18;;;25.51;100.00
15870;BME280;8034;51.442;-0.522;2022-08-11T11:05:25;102119.41;;;26.12;100.00
15870;BME280;8034;51.442;-0.522;2022-08-11T11:10:57;102106.48;;;26.20;100.00
15870;BME280;8034;51.442;-0.522;2022-08-11T11:13:28;102111.22;;;26.10;100.00
15870;BME280;8034;51.442;-0.522;2022-08-11T11:16:16;102117.26;;;26.15;100.00
15870;BME280;8034;51.442;-0.522;2022-08-11T11:19:13;102107.02;;;25.92;100.00
15870;BME280;8034;51.442;-0.522;2022-08-11T11:21:48;102102.66;;;26.28;100.00
15870;BME280;8034;51.442;-0.522;2022-08-11T11:24:24;102100.20;;;26.21;100.00
15870;BME280;8034;51.442;-0.522;2022-08-11T11:26:59;102107.27;;;26.33;100.00
15870;BME280;8034;51.442;-0.522;2022-08-11T11:29:49;102103.44;;;26.01;100.00
15870;BME280;8034;51.442;-0.522;2022-08-11T11:32:29;102100.73;;;26.60;100.00
15870;BME280;8034;51.442;-0.522;2022-08-11T11:38:19;102095.54;;;27.15;100.00
15870;BME280;8034;51.442;-0.522;2022-08-11T11:40:50;102082.33;;;26.58;100.00
15870;BME280;8034;51.442;-0.522;2022-08-11T11:43:40;102096.81;;;26.59;100.00
15870;BME280;8034;51.442;-0.522;2022-08-11T11:46:11;102094.90;;;26.01;100.00
15870;BME280;8034;51.442;-0.522;2022-08-11T11:48:43;102093.16;;;25.72;100.00
15870;BME280;8034;51.442;-0.522;2022-08-11T11:51:14;102095.94;;;26.09;100.00
15870;BME280;8034;51.442;-0.522;2022-08-11T11:53:45;102085.06;;;26.33;100.00
15870;BME280;8034;51.442;-0.522;2022-08-11T11:56:17;102089.41;;;26.08;100.00
15870;BME280;8034;51.442;-0.522;2022-08-11T11:58:48;102081.81;;;26.40;100.00
15870;BME280;8034;51.442;-0.522;2022-08-11T12:01:39;102083.63;;;26.82;100.00
15870;BME280;8034;51.442;-0.522;2022-08-11T12:04:13;102083.06;;;26.77;100.00
15870;BME280;8034;51.442;-0.522;2022-08-11T12:06:44;102078.76;;;26.39;100.00
15870;BME280;8034;51.442;-0.522;2022-08-11T12:09:16;102070.55;;;26.65;100.00
15870;BME280;8034;51.442;-0.522;2022-08-11T12:14:49;102065.54;;;26.13;100.00
15870;BME280;8034;51.442;-0.522;2022-08-11T12:17:20;102074.63;;;25.84;100.00
15870;BME280;8034;51.442;-0.522;2022-08-11T12:19:52;102072.05;;;25.79;100.00
15870;BME280;8034;51.442;-0.522;2022-08-11T12:22:24;102058.00;;;26.33;100.00
15870;BME280;8034;51.442;-0.522;2022-08-11T12:25:12;102053.36;;;26.78;100.00
15870;BME280;8034;51.442;-0.522;2022-08-11T12:28:04;102053.73;;;26.33;100.00
15870;BME280;8034;51.442;-0.522;2022-08-11T12:30:34;102048.70;;;26.42;100.00
15870;BME280;8034;51.442;-0.522;2022-08-11T12:33:07;102047.27;;;26.63;100.00
15870;BME280;8034;51.442;-0.522;2022-08-11T12:35:37;102045.08;;;26.94;100.00
15870;BME280;8034;51.442;-0.522;2022-08-11T12:38:09;102042.38;;;26.26;100.00
15870;BME280;8034;51.442;-0.522;2022-08-11T12:40:40;102037.06;;;26.41;100.00
15870;BME280;8034;51.442;-0.522;2022-08-11T12:43:31;102043.66;;;26.51;100.00
15870;BME280;8034;51.442;-0.522;2022-08-11T12:46:22;102021.89;;;26.09;100.00
15870;BME280;8034;51.442;-0.522;2022-08-11T12:51:53;102029.75;;;26.34;100.00
15870;BME280;8034;51.442;-0.522;2022-08-11T12:54:30;102026.33;;;26.28;100.00
15870;BME280;8034;51.442;-0.522;2022-08-11T12:57:04;102018.02;;;26.66;100.00
15870;BME280;8034;51.442;-0.522;2022-08-11T12:59:54;102018.34;;;26.34;100.00
15870;BME280;8034;51.442;-0.522;2022-08-11T13:02:44;102013.00;;;26.32;100.00
15870;BME280;8034;51.442;-0.522;2022-08-11T13:05:55;102007.51;;;26.61;100.00
15870;BME280;8034;51.442;-0.522;2022-08-11T13:08:27;102010.06;;;26.50;100.00
15870;BME280;8034;51.442;-0.522;2022-08-11T13:11:00;102001.25;;;26.34;100.00
15870;BME280;8034;51.442;-0.522;2022-08-11T13:13:50;102005.20;;;26.01;100.00
15870;BME280;8034;51.442;-0.522;2022-08-11T13:16:25;102003.20;;;26.98;100.00
15870;BME280;8034;51.442;-0.522;2022-08-11T13:18:57;102000.20;;;27.26;100.00
15870;BME280;8034;51.442;-0.522;2022-08-11T13:21:29;102001.14;;;26.89;100.00
15870;BME280;8034;51.442;-0.522;2022-08-11T13:24:01;101994.27;;;26.68;100.00
15870;BME280;8034;51.442;-0.522;2022-08-11T13:26:34;101983.13;;;26.63;100.00
15870;BME280;8034;51.442;-0.522;2022-08-11T13:29:05;101987.76;;;26.46;100.00
15870;BME280;8034;51.442;-0.522;2022-08-11T13:31:36;101975.09;;;27.06;100.00
15870;BME280;8034;51.442;-0.522;2022-08-11T13:34:07;101979.96;;;27.06;100.00
15870;BME280;8034;51.442;-0.522;2022-08-11T13:36:39;101983.24;;;26.98;100.00
15870;BME280;8034;51.442;-0.522;2022-08-11T13:39:10;101977.06;;;26.81;100.00
15870;BME280;8034;51.442;-0.522;2022-08-11T13:41:43;101970.58;;;27.05;100.00
15870;BME280;8034;51.442;-0.522;2022-08-11T13:44:16;101965.54;;;27.78;100.00
15870;BME280;8034;51.442;-0.522;2022-08-11T13:46:47;101965.09;;;27.67;100.00
15870;BME280;8034;51.442;-0.522;2022-08-11T13:49:19;101960.80;;;27.57;100.00
15870;BME280;8034;51.442;-0.522;2022-08-11T13:51:50;101962.68;;;27.78;100.00
15870;BME280;8034;51.442;-0.522;2022-08-11T13:57:22;101959.97;;;28.04;100.00
15870;BME280;8034;51.442;-0.522;2022-08-11T13:59:55;101960.95;;;27.74;100.00
15870;BME280;8034;51.442;-0.522;2022-08-11T14:02:29;101959.55;;;27.13;100.00
15870;BME280;8034;51.442;-0.522;2022-08-11T14:05:06;101959.55;;;26.72;100.00
15870;BME280;8034;51.442;-0.522;2022-08-11T14:07:40;101952.66;;;26.73;100.00
15870;BME280;8034;51.442;-0.522;2022-08-11T14:10:12;101955.36;;;27.17;100.00
15870;BME280;8034;51.442;-0.522;2022-08-11T14:12:46;101953.41;;;27.11;100.00
15870;BME280;8034;51.442;-0.522;2022-08-11T14:15:35;101956.78;;;27.17;100.00
15870;BME280;8034;51.442;-0.522;2022-08-11T14:18:10;101953.16;;;27.36;100.00
15870;BME280;8034;51.442;-0.522;2022-08-11T14:20:41;101949.37;;;27.12;100.00
15870;BME280;8034;51.442;-0.522;2022-08-11T14:23:34;101942.38;;;27.64;100.00
15870;BME280;8034;51.442;-0.522;2022-08-11T14:26:06;101950.95;;;27.64;100.00
15870;BME280;8034;51.442;-0.522;2022-08-11T14:28:55;101953.83;;;27.39;100.00
15870;BME280;8034;51.442;-0.522;2022-08-11T14:31:28;101942.92;;;27.70;100.00
15870;BME280;8034;51.442;-0.522;2022-08-11T14:34:03;101937.17;;;27.41;100.00
15870;BME280;8034;51.442;-0.522;2022-08-11T14:36:36;101931.70;;;27.42;100.00
15870;BME280;8034;51.442;-0.522;2022-08-11T14:39:09;101930.86;;;27.41;100.00
15870;BME280;8034;51.442;-0.522;2022-08-11T14:41:42;101934.17;;;27.08;100.00
15870;BME280;8034;51.442;-0.522;2022-08-11T14:44:31;101930.08;;;27.89;100.00
15870;BME280;8034;51.442;-0.522;2022-08-11T14:47:22;101931.83;;;27.39;100.00
15870;BME280;8034;51.442;-0.522;2022-08-11T14:49:55;101921.95;;;28.10;100.00
15870;BME280;8034;51.442;-0.522;2022-08-11T14:52:27;101916.33;;;27.66;100.00
15870;BME280;8034;51.442;-0.522;2022-08-11T14:54:59;101919.50;;;27.51;100.00
15870;BME280;8034;51.442;-0.522;2022-08-11T14:57:48;101914.22;;;27.53;100.00
15870;BME280;8034;51.442;-0.522;2022-08-11T15:00:20;101917.16;;;27.66;100.00
15870;BME280;8034;51.442;-0.522;2022-08-11T15:02:51;101906.12;;;27.55;100.00
15870;BME280;8034;51.442;-0.522;2022-08-11T15:05:47;101911.58;;;27.92;100.00
15870;BME280;8034;51.442;-0.522;2022-08-11T15:08:20;101907.83;;;27.79;100.00
15870;BME280;8034;51.442;-0.522;2022-08-11T15:10:54;101909.48;;;27.60;100.00
15870;BME280;8034;51.442;-0.522;2022-08-11T15:13:24;101898.55;;;27.95;100.00
15870;BME280;8034;51.442;-0.522;2022-08-11T15:15:55;101903.22;;;28.13;100.00
15870;BME280;8034;51.442;-0.522;2022-08-11T15:18:42;101900.65;;;28.17;100.00
15870;BME280;8034;51.442;-0.522;2022-08-11T15:21:13;101900.02;;;27.76;100.00
15870;BME280;8034;51.442;-0.522;2022-08-11T15:24:01;101898.20;;;27.77;100.00
15870;BME280;8034;51.442;-0.522;2022-08-11T15:26:53;101900.16;;;27.83;100.00
15870;BME280;8034;51.442;-0.522;2022-08-11T15:29:43;101902.17;;;27.92;100.00
15870;BME280;8034;51.442;-0.522;2022-08-11T15:32:34;101900.43;;;28.06;100.00
15870;BME280;8034;51.442;-0.522;2022-08-11T15:35:22;101905.50;;;27.84;100.00
15870;BME280;8034;51.442;-0.522;2022-08-11T15:41:12;101896.59;;;27.99;100.00
15870;BME280;8034;51.442;-0.522;2022-08-11T15:44:04;101899.42;;;27.67;100.00
15870;BME280;8034;51.442;-0.522;2022-08-11T15:49:54;101887.73;;;28.14;100.00
15870;BME280;8034;51.442;-0.522;2022-08-11T15:55:26;101881.65;;;28.28;100.00
15870;BME280;8034;51.442;-0.522;2022-08-11T15:58:00;101885.11;;;28.15;100.00
15870;BME280;8034;51.442;-0.522;2022-08-11T16:00:50;101880.28;;;27.99;100.00
15870;BME280;8034;51.442;-0.522;2022-08-11T16:03:44;101878.93;;;28.13;100.00
15870;BME280;8034;51.442;-0.522;2022-08-11T16:06:33;101881.55;;;28.12;100.00
15870;BME280;8034;51.442;-0.522;2022-08-11T16:09:06;101877.06;;;28.01;100.00
15870;BME280;8034;51.442;-0.522;2022-08-11T16:11:39;101871.11;;;28.00;100.00
15870;BME280;8034;51.442;-0.522;2022-08-11T16:14:12;101867.51;;;28.35;100.00
15870;BME280;8034;51.442;-0.522;2022-08-11T16:17:03;101874.75;;;27.87;100.00
15870;BME280;8034;51.442;-0.522;2022-08-11T16:19:36;101867.17;;;28.08;100.00
15870;BME280;8034;51.442;-0.522;2022-08-11T16:22:10;101875.24;;;28.12;100.00
15870;BME280;8034;51.442;-0.522;2022-08-11T16:24:46;101878.45;;;27.69;100.00
15870;BME280;8034;51.442;-0.522;2022-08-11T16:27:17;101873.59;;;28.01;100.00
15870;BME280;8034;51.442;-0.522;2022-08-11T16:29:50;101866.59;;;28.18;100.00
15870;BME280;8034;51.442;-0.522;2022-08-11T16:32:24;101870.58;;;28.04;100.00
15870;BME280;8034;51.442;-0.522;2022-08-11T16:35:01;101873.78;;;27.89;100.00